Time;durP1;ratioP1;P1;durP2;ratioP2;P2;SDS_P1;SDS_P2;PMS_P1;PMS_P2;Temp;Humidity;BMP_temperature;BMP_pressure;BME280_temperature;BME280_humidity;BME280_pressure;Samples;Min_cycle;Max_cycle;Signal;HPM_P1;HPM_P2
2022/01/16 00:00:47;;;;;;;106.05;42.58;;;2.20;99.90;;;;;;5014966;28;20068;-77
2022/01/16 00:05:57;;;;;;;99.72;43.75;;;2.10;99.90;;;;;;5015745;28;19917;-77
2022/01/16 00:08:23;;;;;;;103.18;42.33;;;2.00;99.90;;;;;;5014688;28;20084;-77
2022/01/16 00:10:48;;;;;;;117.43;45.35;;;1.90;99.90;;;;;;5012260;28;20555;-77
2022/01/16 00:13:14;;;;;;;114.13;45.70;;;1.90;99.90;;;;;;5000179;28;20495;-77
2022/01/16 00:15:43;;;;;;;127.00;46.63;;;1.90;99.90;;;;;;4990041;28;20065;-77
2022/01/16 00:18:19;;;;;;;132.32;45.75;;;1.80;99.90;;;;;;5009257;28;20033;-77
2022/01/16 00:20:45;;;;;;;138.80;48.92;;;1.70;99.90;;;;;;5013146;28;20037;-77
2022/01/16 00:23:10;;;;;;;147.23;49.00;;;1.80;99.90;;;;;;4995112;28;20113;-77
2022/01/16 00:25:36;;;;;;;144.63;48.42;;;1.90;99.90;;;;;;4999307;28;20052;-77
2022/01/16 00:28:02;;;;;;;141.18;47.28;;;1.90;99.90;;;;;;5010926;28;20048;-77
2022/01/16 00:30:28;;;;;;;152.80;49.22;;;1.90;99.90;;;;;;4994044;28;20034;-77
2022/01/16 00:32:59;;;;;;;141.00;46.78;;;2.00;99.90;;;;;;5013300;28;20041;-77
2022/01/16 00:35:25;;;;;;;137.82;47.13;;;2.00;99.90;;;;;;5013392;28;20045;-77
2022/01/16 00:37:52;;;;;;;133.35;48.15;;;1.90;99.90;;;;;;4995553;28;20049;-77
2022/01/16 00:40:18;;;;;;;126.05;48.28;;;1.90;99.90;;;;;;5008851;28;20056;-76
2022/01/16 00:42:44;;;;;;;116.72;43.78;;;1.80;99.90;;;;;;5013874;28;20037;-76
2022/01/16 00:45:10;;;;;;;128.80;44.28;;;1.80;99.90;;;;;;5014129;28;20029;-76
2022/01/16 00:47:36;;;;;;;122.72;42.78;;;1.80;99.90;;;;;;4996427;28;20042;-76
2022/01/16 00:50:03;;;;;;;114.00;43.20;;;1.80;99.90;;;;;;5011142;28;20049;-76
2022/01/16 00:52:29;;;;;;;119.20;42.95;;;1.80;99.90;;;;;;4995135;28;20126;-77
2022/01/16 00:54:57;;;;;;;109.05;40.35;;;1.70;99.90;;;;;;4996530;28;20068;-76
2022/01/16 00:57:23;;;;;;;113.65;40.90;;;1.70;99.90;;;;;;4992531;28;20088;-76
2022/01/16 00:59:49;;;;;;;110.03;41.17;;;1.60;99.90;;;;;;5011602;28;20037;-76
2022/01/16 01:02:14;;;;;;;117.22;41.33;;;1.60;99.90;;;;;;5017911;28;20044;-76
2022/01/16 01:04:41;;;;;;;131.38;43.17;;;1.50;99.90;;;;;;5010544;28;20034;-76
2022/01/16 01:07:07;;;;;;;127.35;41.65;;;1.60;99.90;;;;;;4992473;28;20025;-76
2022/01/16 01:09:33;;;;;;;137.25;42.22;;;1.70;99.90;;;;;;5007884;28;20124;-76
2022/01/16 01:11:59;;;;;;;131.48;44.25;;;1.70;99.90;;;;;;5007855;28;20049;-76
2022/01/16 01:14:37;;;;;;;138.68;44.38;;;1.70;99.90;;;;;;5010443;28;20049;-76
2022/01/16 01:17:04;;;;;;;139.43;44.72;;;1.70;99.90;;;;;;5011564;28;20254;-76
2022/01/16 01:19:33;;;;;;;147.90;43.42;;;1.60;99.90;;;;;;5011515;28;20475;-76
2022/01/16 01:22:00;;;;;;;152.48;44.75;;;1.70;99.90;;;;;;5008101;28;20037;-76
2022/01/16 01:24:27;;;;;;;147.77;47.33;;;1.60;99.90;;;;;;5010605;28;20176;-76
2022/01/16 01:27:01;;;;;;;163.95;48.13;;;1.70;99.90;;;;;;5010005;28;20041;-76
2022/01/16 01:29:29;;;;;;;152.75;46.50;;;1.70;99.90;;;;;;5009189;28;20042;-76
2022/01/16 01:31:56;;;;;;;162.80;47.58;;;1.70;99.90;;;;;;4990130;28;20049;-76
2022/01/16 01:34:24;;;;;;;175.13;49.65;;;1.70;99.90;;;;;;5008495;28;20116;-76
2022/01/16 01:36:51;;;;;;;178.68;49.88;;;1.70;99.90;;;;;;5012404;28;20038;-76
2022/01/16 01:39:18;;;;;;;176.85;47.47;;;1.70;99.90;;;;;;5011619;28;20122;-76
2022/01/16 01:41:46;;;;;;;176.23;48.08;;;1.70;99.90;;;;;;5012793;28;20049;-76
2022/01/16 01:52:24;;;;;;;225.48;54.70;;;1.80;99.90;;;;;;5011557;28;20103;-76
2022/01/16 01:54:51;;;;;;;249.98;56.35;;;1.90;99.90;;;;;;4994717;28;20041;-76
2022/01/16 01:57:17;;;;;;;236.32;54.55;;;1.80;99.90;;;;;;5008635;28;20046;-76
2022/01/16 01:59:43;;;;;;;242.73;58.70;;;1.80;99.90;;;;;;5005315;28;20037;-76
2022/01/16 02:02:09;;;;;;;241.38;56.58;;;1.80;99.90;;;;;;5005262;28;20049;-76
2022/01/16 02:04:34;;;;;;;266.35;58.70;;;1.80;99.90;;;;;;5007062;28;20045;-76
2022/01/16 02:07:00;;;;;;;241.93;57.15;;;1.90;99.90;;;;;;5014795;28;20041;-76
2022/01/16 02:09:26;;;;;;;239.05;57.88;;;1.90;99.90;;;;;;4996781;28;20037;-76
2022/01/16 02:11:52;;;;;;;247.40;58.33;;;1.90;99.90;;;;;;5010328;28;20523;-76
2022/01/16 02:14:53;;;;;;;291.70;59.92;;;1.90;99.90;;;;;;4992980;28;20076;-76
2022/01/16 02:28:35;;;;;;;281.52;58.08;;;2.10;99.90;;;;;;4988266;28;20045;-76
2022/01/16 02:36:15;;;;;;;259.83;58.58;;;2.20;99.90;;;;;;5003424;28;20124;-76
2022/01/16 02:38:40;;;;;;;356.17;62.90;;;2.20;99.90;;;;;;5008098;28;20483;-75
2022/01/16 02:41:06;;;;;;;311.92;60.38;;;2.20;99.90;;;;;;5010939;28;20048;-76
2022/01/16 02:43:35;;;;;;;347.48;62.63;;;2.20;99.90;;;;;;5009003;28;20088;-76
2022/01/16 02:48:48;;;;;;;434.63;62.45;;;2.20;99.90;;;;;;4999179;28;20415;-76
2022/01/16 02:51:26;;;;;;;397.67;63.35;;;2.20;99.90;;;;;;5002248;28;20412;-76
2022/01/16 02:53:52;;;;;;;392.10;62.08;;;2.30;99.90;;;;;;5004613;28;20400;-76
2022/01/16 02:56:19;;;;;;;467.63;63.70;;;2.30;99.90;;;;;;5026440;28;20458;-76
2022/01/16 02:58:46;;;;;;;346.85;59.33;;;2.30;99.90;;;;;;5009048;28;20495;-76
2022/01/16 03:01:13;;;;;;;396.02;60.30;;;2.30;99.90;;;;;;5009738;28;20033;-76
2022/01/16 03:03:40;;;;;;;409.83;57.92;;;2.40;99.90;;;;;;5010118;28;20511;-76
2022/01/16 03:06:06;;;;;;;397.55;62.08;;;2.40;99.90;;;;;;4997368;28;20519;-76
2022/01/16 03:08:31;;;;;;;426.85;62.10;;;2.40;99.90;;;;;;4993647;28;20030;-75
2022/01/16 03:13:30;;;;;;;370.52;60.38;;;2.40;99.90;;;;;;5012091;28;20072;-76
2022/01/16 03:15:56;;;;;;;341.08;59.30;;;2.40;99.90;;;;;;5011303;28;20507;-76
2022/01/16 03:23:33;;;;;;;338.80;60.92;;;2.40;99.90;;;;;;5012558;28;20493;-76
2022/01/16 03:25:59;;;;;;;339.70;60.78;;;2.40;99.90;;;;;;4993284;28;20557;-76
2022/01/16 03:28:25;;;;;;;303.70;57.97;;;2.40;99.90;;;;;;4992379;28;20069;-76
2022/01/16 03:30:52;;;;;;;345.55;60.15;;;2.40;99.90;;;;;;4991730;28;20119;-76
2022/01/16 03:33:20;;;;;;;308.75;57.72;;;2.40;99.90;;;;;;5011334;28;20488;-76
2022/01/16 03:35:46;;;;;;;334.15;58.38;;;2.40;99.90;;;;;;5013195;28;20377;-76
2022/01/16 03:38:12;;;;;;;308.77;57.55;;;2.40;99.90;;;;;;4996158;28;20399;-76
2022/01/16 03:40:38;;;;;;;318.63;58.63;;;2.40;99.90;;;;;;5013914;28;20056;-76
2022/01/16 03:43:14;;;;;;;296.20;58.53;;;2.50;99.90;;;;;;5011287;28;20427;-76
2022/01/16 03:45:46;;;;;;;287.65;56.05;;;2.50;99.90;;;;;;4997578;28;20431;-76
2022/01/16 03:48:13;;;;;;;300.42;59.38;;;2.50;99.90;;;;;;5027923;28;20391;-76
2022/01/16 03:50:39;;;;;;;290.50;56.70;;;2.50;99.90;;;;;;5013411;28;20040;-76
2022/01/16 03:53:04;;;;;;;333.00;58.28;;;2.50;99.90;;;;;;4993937;28;20447;-76
2022/01/16 03:55:31;;;;;;;292.08;58.58;;;2.60;99.90;;;;;;5012011;28;20034;-76
2022/01/16 03:57:57;;;;;;;289.05;57.17;;;2.50;99.90;;;;;;4994200;28;20614;-76
2022/01/16 04:00:24;;;;;;;291.70;57.03;;;2.50;99.90;;;;;;4996530;28;20128;-76
2022/01/16 04:02:49;;;;;;;264.75;56.28;;;2.60;99.90;;;;;;5011070;28;20036;-76
2022/01/16 04:05:15;;;;;;;267.20;56.95;;;2.60;99.90;;;;;;5011273;28;20503;-76
2022/01/16 04:07:41;;;;;;;273.33;57.28;;;2.60;99.90;;;;;;5010387;28;20034;-76
2022/01/16 04:10:08;;;;;;;280.35;58.25;;;2.70;99.90;;;;;;5011512;28;20084;-76
2022/01/16 04:12:35;;;;;;;256.33;55.65;;;2.60;99.90;;;;;;5010184;28;20069;-76
2022/01/16 04:17:27;;;;;;;292.92;57.80;;;2.70;99.90;;;;;;5009974;28;20045;-76
2022/01/16 04:19:53;;;;;;;269.02;58.90;;;2.70;99.90;;;;;;4999277;28;20053;-76
2022/01/16 04:22:20;;;;;;;282.42;59.45;;;2.70;99.90;;;;;;5010332;28;20578;-76
2022/01/16 04:24:46;;;;;;;269.50;58.08;;;2.70;99.90;;;;;;5012785;28;20037;-76
2022/01/16 04:27:13;;;;;;;280.05;56.60;;;2.80;99.90;;;;;;5011465;28;20046;-76
2022/01/16 04:29:45;;;;;;;282.02;56.83;;;2.80;99.90;;;;;;5008793;28;20392;-76
2022/01/16 04:32:11;;;;;;;284.88;58.55;;;2.90;99.90;;;;;;5011142;28;20037;-76
2022/01/16 04:34:37;;;;;;;258.02;57.25;;;2.90;99.90;;;;;;4997756;28;20091;-76
2022/01/16 04:37:03;;;;;;;287.65;58.10;;;2.90;99.90;;;;;;5010732;28;20038;-76
2022/01/16 04:39:34;;;;;;;261.95;56.55;;;2.90;99.90;;;;;;5012772;28;20045;-76
2022/01/16 04:44:44;;;;;;;270.20;58.50;;;3.00;99.90;;;;;;5013320;28;20130;-76
2022/01/16 04:47:10;;;;;;;286.25;59.42;;;2.90;99.90;;;;;;5010296;28;20065;-76
2022/01/16 04:49:36;;;;;;;262.67;58.20;;;2.90;99.90;;;;;;5009851;28;20052;-76
2022/01/16 04:52:02;;;;;;;267.90;56.42;;;3.00;99.90;;;;;;5006645;28;20048;-76
2022/01/16 04:54:28;;;;;;;258.83;57.10;;;3.00;99.90;;;;;;4994422;28;20045;-76
2022/01/16 04:56:54;;;;;;;244.43;57.92;;;3.00;99.90;;;;;;5011323;28;20048;-76
2022/01/16 04:59:20;;;;;;;237.52;57.03;;;3.00;99.90;;;;;;5009566;28;20492;-76
2022/01/16 05:01:46;;;;;;;238.80;55.33;;;3.00;99.90;;;;;;5011987;28;20120;-76
2022/01/16 05:04:12;;;;;;;249.13;56.67;;;3.10;99.90;;;;;;5022843;28;20041;-76
2022/01/16 05:06:38;;;;;;;237.35;55.22;;;3.00;99.90;;;;;;4993267;28;20045;-76
2022/01/16 05:09:04;;;;;;;238.77;56.17;;;3.00;99.90;;;;;;4991727;28;20074;-76
2022/01/16 05:11:29;;;;;;;255.73;59.45;;;3.10;99.90;;;;;;5013873;28;20095;-76
2022/01/16 05:16:36;;;;;;;240.43;55.97;;;3.10;99.90;;;;;;5009893;28;20124;-76
2022/01/16 05:19:13;;;;;;;239.77;57.28;;;3.00;99.90;;;;;;5010059;28;20037;-76
2022/01/16 05:21:42;;;;;;;224.00;53.90;;;3.10;99.90;;;;;;4996152;28;20542;-76
2022/01/16 05:24:10;;;;;;;211.13;55.45;;;3.10;99.90;;;;;;5011517;28;20038;-76
2022/01/16 05:26:44;;;;;;;231.93;56.50;;;3.10;99.90;;;;;;4996085;28;20029;-76
2022/01/16 05:29:11;;;;;;;212.45;55.45;;;3.20;99.90;;;;;;5001850;28;20399;-76
2022/01/16 05:31:37;;;;;;;219.75;53.30;;;3.20;99.90;;;;;;5011865;28;20048;-76
2022/01/16 05:34:03;;;;;;;212.88;55.10;;;3.20;99.90;;;;;;5004358;28;20089;-76
2022/01/16 05:36:29;;;;;;;216.02;54.08;;;3.20;99.90;;;;;;5012842;28;20041;-75
2022/01/16 05:38:55;;;;;;;226.55;56.38;;;3.30;99.90;;;;;;4994312;28;20051;-76
2022/01/16 05:41:21;;;;;;;231.70;56.08;;;3.20;99.90;;;;;;5009594;28;20045;-76
2022/01/16 05:43:47;;;;;;;220.93;56.22;;;3.20;99.90;;;;;;5000172;28;20045;-76
2022/01/16 05:46:14;;;;;;;230.20;57.00;;;3.20;99.90;;;;;;5008893;28;20080;-76
2022/01/16 05:48:40;;;;;;;236.20;58.58;;;3.30;99.90;;;;;;5010191;28;20034;-76
2022/01/16 05:51:06;;;;;;;223.95;57.05;;;3.30;99.90;;;;;;4998584;28;20048;-75
2022/01/16 05:53:31;;;;;;;226.73;57.78;;;3.30;99.90;;;;;;5008903;28;20148;-76
2022/01/16 05:55:57;;;;;;;210.02;54.17;;;3.30;99.90;;;;;;5006585;28;20041;-75
2022/01/16 05:58:22;;;;;;;226.52;59.25;;;3.30;99.90;;;;;;5012384;28;20068;-76
2022/01/16 06:00:48;;;;;;;231.00;57.13;;;3.30;99.90;;;;;;5007129;28;20056;-77
2022/01/16 06:03:14;;;;;;;237.45;58.60;;;3.30;99.90;;;;;;5010718;28;20060;-76
2022/01/16 06:05:40;;;;;;;235.20;56.15;;;3.30;99.90;;;;;;5011139;28;20030;-76
2022/01/16 06:08:12;;;;;;;250.45;58.78;;;3.30;99.90;;;;;;4994956;28;20132;-76
2022/01/16 06:10:38;;;;;;;240.55;56.33;;;3.30;99.90;;;;;;5008929;28;20061;-76
2022/01/16 06:13:05;;;;;;;243.80;56.38;;;3.30;99.90;;;;;;5008674;28;20079;-76
2022/01/16 06:15:31;;;;;;;240.35;57.53;;;3.40;99.90;;;;;;4995822;28;20053;-76
2022/01/16 06:17:57;;;;;;;246.82;58.00;;;3.40;99.90;;;;;;5005481;28;20037;-76
2022/01/16 06:20:23;;;;;;;253.23;58.28;;;3.40;99.90;;;;;;5003428;28;20045;-76
2022/01/16 06:22:49;;;;;;;243.38;57.70;;;3.40;99.90;;;;;;5009598;28;20052;-76
2022/01/16 06:25:15;;;;;;;250.30;59.30;;;3.30;99.90;;;;;;5011419;28;20082;-76
2022/01/16 06:27:41;;;;;;;263.73;60.75;;;3.30;99.90;;;;;;5010457;28;20033;-76
2022/01/16 06:30:09;;;;;;;246.82;60.13;;;3.30;99.90;;;;;;5005153;28;20555;-76
2022/01/16 06:32:35;;;;;;;269.60;61.03;;;3.40;99.90;;;;;;5011330;28;20041;-76
2022/01/16 06:35:02;;;;;;;264.33;58.50;;;3.40;99.90;;;;;;4994931;28;20523;-76
2022/01/16 06:37:28;;;;;;;263.83;61.80;;;3.40;99.90;;;;;;5009450;28;20483;-76
2022/01/16 06:39:53;;;;;;;253.35;59.95;;;3.40;99.90;;;;;;5008964;28;20128;-76
2022/01/16 06:42:19;;;;;;;267.85;60.13;;;3.40;99.90;;;;;;5011072;28;20049;-76
2022/01/16 06:44:45;;;;;;;263.08;58.90;;;3.40;99.90;;;;;;5009104;28;20047;-76
2022/01/16 06:47:10;;;;;;;249.02;59.58;;;3.50;99.90;;;;;;4994194;28;20116;-76
2022/01/16 06:49:36;;;;;;;251.30;60.95;;;3.50;99.90;;;;;;4997246;28;20072;-76
2022/01/16 06:52:02;;;;;;;261.70;60.40;;;3.50;99.90;;;;;;5005335;28;20029;-76
2022/01/16 06:54:28;;;;;;;259.42;60.58;;;3.50;99.90;;;;;;5010071;28;20095;-76
2022/01/16 06:56:53;;;;;;;240.38;59.15;;;3.60;99.90;;;;;;5007231;28;20038;-76
2022/01/16 06:59:19;;;;;;;243.68;59.33;;;3.60;99.90;;;;;;5008506;28;20042;-76
2022/01/16 07:01:44;;;;;;;252.75;59.35;;;3.50;99.90;;;;;;5007134;28;20049;-76
2022/01/16 07:04:10;;;;;;;254.18;60.85;;;3.50;99.90;;;;;;4991354;28;20124;-76
2022/01/16 07:06:36;;;;;;;248.95;58.80;;;3.50;99.90;;;;;;5007457;28;20040;-76
2022/01/16 07:09:02;;;;;;;269.50;62.65;;;3.60;99.90;;;;;;5007609;28;20076;-75
2022/01/16 07:11:27;;;;;;;269.13;61.70;;;3.60;99.90;;;;;;5008890;28;20053;-76
2022/01/16 07:13:53;;;;;;;255.65;59.65;;;3.60;99.90;;;;;;5003277;28;20045;-76
2022/01/16 07:16:18;;;;;;;268.00;62.35;;;3.50;99.90;;;;;;4994794;28;20049;-76
2022/01/16 07:18:44;;;;;;;262.73;62.22;;;3.60;99.90;;;;;;5008748;28;20129;-76
2022/01/16 07:21:13;;;;;;;260.45;63.17;;;3.60;99.90;;;;;;5006064;28;20069;-76
2022/01/16 07:23:49;;;;;;;252.07;62.65;;;3.70;99.90;;;;;;5005343;28;20034;-76
2022/01/16 07:26:16;;;;;;;241.10;61.08;;;3.70;99.90;;;;;;5021933;28;20315;-76
2022/01/16 07:28:42;;;;;;;237.73;59.20;;;3.70;99.90;;;;;;5008786;28;20041;-76
2022/01/16 07:31:08;;;;;;;244.98;61.58;;;3.70;99.90;;;;;;5005935;28;20629;-76
2022/01/16 07:33:34;;;;;;;250.40;60.90;;;3.70;99.90;;;;;;5004684;28;20041;-76
2022/01/16 07:36:00;;;;;;;265.38;61.05;;;3.80;99.90;;;;;;5005315;28;20395;-76
2022/01/16 07:38:26;;;;;;;243.82;60.88;;;3.80;99.90;;;;;;5006110;28;20052;-76
2022/01/16 07:40:51;;;;;;;250.75;60.60;;;3.80;99.90;;;;;;5007134;28;20526;-77
2022/01/16 07:43:17;;;;;;;252.60;62.83;;;3.80;99.90;;;;;;4992973;28;20496;-77
2022/01/16 07:45:43;;;;;;;240.57;60.72;;;3.80;99.90;;;;;;4993058;28;20041;-76
2022/01/16 07:48:09;;;;;;;233.93;60.17;;;3.80;99.90;;;;;;4988281;28;20518;-76
2022/01/16 07:50:36;;;;;;;253.75;67.57;;;3.90;99.90;;;;;;5002740;28;20120;-76
2022/01/16 07:53:03;;;;;;;233.20;62.20;;;3.90;99.90;;;;;;5009455;28;20033;-75
2022/01/16 07:55:28;;;;;;;229.20;62.45;;;3.90;99.90;;;;;;5013768;28;20124;-76
2022/01/16 07:57:55;;;;;;;227.77;66.25;;;3.90;99.90;;;;;;5007754;28;20513;-74
2022/01/16 08:00:22;;;;;;;213.77;63.33;;;4.00;99.90;;;;;;5012396;28;20040;-76
2022/01/16 08:02:49;;;;;;;235.95;66.18;;;4.00;99.90;;;;;;4998630;28;20578;-76
2022/01/16 08:05:17;;;;;;;211.23;60.50;;;4.00;99.90;;;;;;5007599;28;20049;-76
2022/01/16 08:07:43;;;;;;;219.48;63.00;;;4.10;99.90;;;;;;5009662;28;20037;-76
2022/01/16 08:10:09;;;;;;;208.98;66.85;;;4.10;99.90;;;;;;5008728;28;20036;-76
2022/01/16 08:12:35;;;;;;;213.63;66.85;;;4.20;99.90;;;;;;4995366;28;20076;-75
2022/01/16 08:15:01;;;;;;;211.68;63.72;;;4.20;99.90;;;;;;5012437;28;21734;-75
2022/01/16 08:17:26;;;;;;;213.95;62.90;;;4.30;99.90;;;;;;5006796;28;20037;-75
2022/01/16 08:19:52;;;;;;;196.02;62.25;;;4.30;99.90;;;;;;4993554;28;20503;-75
2022/01/16 08:22:18;;;;;;;192.63;62.63;;;4.40;99.90;;;;;;5009384;28;20046;-75
2022/01/16 08:24:43;;;;;;;196.80;62.40;;;4.50;99.90;;;;;;5008988;28;20629;-75
2022/01/16 08:27:09;;;;;;;194.90;64.88;;;4.60;99.90;;;;;;5003326;28;20034;-75
2022/01/16 08:29:35;;;;;;;186.60;61.80;;;4.60;99.90;;;;;;5010737;28;20413;-75
2022/01/16 08:32:00;;;;;;;189.38;63.45;;;4.60;99.90;;;;;;5011462;28;20385;-75
2022/01/16 08:34:26;;;;;;;168.65;61.88;;;4.70;99.90;;;;;;5009054;28;20112;-75
2022/01/16 08:36:52;;;;;;;179.00;59.55;;;4.70;99.90;;;;;;4995029;28;20271;-75
2022/01/16 08:39:17;;;;;;;165.70;60.35;;;4.80;99.90;;;;;;4993912;28;20042;-76
2022/01/16 08:41:43;;;;;;;163.30;61.78;;;4.80;99.90;;;;;;5010775;28;20451;-76
2022/01/16 08:44:09;;;;;;;153.82;57.60;;;4.90;99.90;;;;;;5012270;28;20038;-77
2022/01/16 08:46:34;;;;;;;139.40;53.67;;;4.80;99.90;;;;;;5005635;28;20137;-75
2022/01/16 08:49:01;;;;;;;146.75;58.83;;;4.90;99.90;;;;;;5007581;28;20070;-76
2022/01/16 08:51:27;;;;;;;144.70;55.92;;;5.00;99.90;;;;;;4995034;28;20033;-76
2022/01/16 08:53:53;;;;;;;139.70;55.20;;;5.00;99.90;;;;;;4993071;28;20041;-76
2022/01/16 08:56:20;;;;;;;123.32;51.80;;;5.00;99.90;;;;;;4996711;28;20156;-76
2022/01/16 08:58:46;;;;;;;129.10;54.25;;;5.00;99.90;;;;;;4996613;28;20037;-76
2022/01/16 09:01:11;;;;;;;123.85;50.15;;;5.00;99.90;;;;;;5012268;28;20128;-76
2022/01/16 09:03:38;;;;;;;118.80;51.88;;;5.00;99.90;;;;;;5006796;28;20144;-76
2022/01/16 09:06:05;;;;;;;113.93;52.20;;;5.10;99.90;;;;;;4992580;28;20041;-76
2022/01/16 09:08:30;;;;;;;111.53;49.22;;;5.10;99.90;;;;;;5008175;28;20068;-76
2022/01/16 09:10:56;;;;;;;114.28;51.85;;;5.20;99.90;;;;;;5009625;28;20065;-75
2022/01/16 09:13:22;;;;;;;107.30;50.35;;;5.20;99.90;;;;;;5010951;28;20037;-76
2022/01/16 09:15:49;;;;;;;111.93;49.75;;;5.30;99.90;;;;;;5011441;28;20045;-76
2022/01/16 09:18:17;;;;;;;106.43;48.58;;;5.30;99.90;;;;;;5013953;28;20041;-76
2022/01/16 09:20:43;;;;;;;102.72;46.42;;;5.40;99.90;;;;;;5004962;28;20132;-76
2022/01/16 09:23:09;;;;;;;98.50;48.13;;;5.30;99.90;;;;;;5004494;28;20061;-76
2022/01/16 09:25:35;;;;;;;96.90;46.08;;;5.30;99.90;;;;;;5007762;28;20037;-76
2022/01/16 09:28:02;;;;;;;96.30;46.00;;;5.40;99.90;;;;;;5008216;28;20052;-76
2022/01/16 09:30:29;;;;;;;102.60;47.35;;;5.40;99.90;;;;;;4997085;28;20042;-76
2022/01/16 09:32:55;;;;;;;100.38;46.60;;;5.40;99.90;;;;;;4995989;28;20045;-76
2022/01/16 09:35:21;;;;;;;94.03;46.28;;;5.40;99.90;;;;;;5009356;28;20048;-76
2022/01/16 09:37:47;;;;;;;94.38;44.67;;;5.50;99.90;;;;;;5007915;28;20052;-76
2022/01/16 09:40:15;;;;;;;93.13;45.78;;;5.40;99.90;;;;;;4992724;28;20160;-76
2022/01/16 09:42:42;;;;;;;90.93;44.50;;;5.40;99.90;;;;;;5007599;28;20045;-76
2022/01/16 09:45:10;;;;;;;94.82;45.95;;;5.40;99.90;;;;;;5010207;28;20041;-76
2022/01/16 09:47:38;;;;;;;94.50;46.67;;;5.50;99.90;;;;;;5015045;28;20188;-76
2022/01/16 09:50:06;;;;;;;87.28;44.50;;;5.40;99.90;;;;;;5010495;28;20646;-76
2022/01/16 09:52:36;;;;;;;85.80;43.83;;;5.40;99.90;;;;;;4994610;28;20048;-76
2022/01/16 09:55:02;;;;;;;87.85;44.13;;;5.50;99.90;;;;;;4996022;28;20037;-76
2022/01/16 09:57:28;;;;;;;96.35;47.58;;;5.50;99.90;;;;;;5008589;28;20069;-76
2022/01/16 09:59:54;;;;;;;91.35;44.45;;;5.40;99.90;;;;;;5013172;28;20107;-76
2022/01/16 10:02:19;;;;;;;84.82;43.25;;;5.50;99.90;;;;;;5016014;28;20114;-76
2022/01/16 10:04:45;;;;;;;87.40;42.10;;;5.40;99.90;;;;;;5010695;28;20065;-75
2022/01/16 10:07:15;;;;;;;83.47;39.80;;;5.40;99.90;;;;;;5013402;28;20033;-76
2022/01/16 10:09:43;;;;;;;78.25;42.45;;;5.40;99.90;;;;;;5011279;28;20029;-76
2022/01/16 10:12:17;;;;;;;79.68;41.92;;;5.50;99.90;;;;;;5015895;28;20064;-76
2022/01/16 10:14:49;;;;;;;81.07;43.15;;;5.50;99.90;;;;;;5011422;28;20539;-76
2022/01/16 10:17:25;;;;;;;77.80;42.95;;;5.50;99.90;;;;;;5009043;28;20061;-75
2022/01/16 10:19:58;;;;;;;78.68;42.47;;;5.50;99.90;;;;;;5006699;28;20041;-75
2022/01/16 10:22:36;;;;;;;76.80;40.72;;;5.50;99.90;;;;;;5011569;28;20041;-75
2022/01/16 10:25:04;;;;;;;78.53;39.70;;;5.60;99.90;;;;;;4990632;28;20065;-75
2022/01/16 10:27:34;;;;;;;72.30;38.50;;;5.60;99.90;;;;;;5006170;28;20035;-75
2022/01/16 10:30:02;;;;;;;71.93;37.25;;;5.60;99.90;;;;;;4993138;28;20037;-75
2022/01/16 10:32:31;;;;;;;70.63;39.78;;;5.60;99.90;;;;;;5004716;28;20066;-75
2022/01/16 10:35:06;;;;;;;67.43;36.55;;;5.60;99.90;;;;;;5008319;28;20069;-75
2022/01/16 10:37:32;;;;;;;69.68;36.10;;;5.70;99.90;;;;;;5008456;28;20054;-75
2022/01/16 10:40:03;;;;;;;71.30;36.42;;;5.70;99.90;;;;;;5002526;28;20041;-75
2022/01/16 10:42:30;;;;;;;69.60;36.75;;;5.70;99.90;;;;;;4990487;28;20127;-75
2022/01/16 10:45:02;;;;;;;64.60;34.60;;;5.70;99.90;;;;;;5004802;28;20040;-75
2022/01/16 10:47:36;;;;;;;64.13;35.00;;;5.80;99.90;;;;;;5001246;28;20373;-75
2022/01/16 10:50:33;;;;;;;59.75;31.98;;;5.80;99.90;;;;;;4991993;28;20152;-75
2022/01/16 10:53:04;;;;;;;57.55;32.33;;;5.90;99.90;;;;;;5007223;28;20045;-75
2022/01/16 10:55:41;;;;;;;60.22;32.70;;;5.90;99.90;;;;;;5005217;28;20057;-75
2022/01/16 10:58:13;;;;;;;50.92;29.92;;;5.90;99.90;;;;;;5007829;28;20038;-75
2022/01/16 11:00:45;;;;;;;60.10;30.77;;;5.90;99.90;;;;;;5009221;28;20060;-76
2022/01/16 11:03:13;;;;;;;54.63;30.30;;;6.00;99.90;;;;;;5008701;28;20369;-76
2022/01/16 11:05:43;;;;;;;54.72;29.50;;;6.00;99.90;;;;;;5007745;28;20030;-76
2022/01/16 11:08:12;;;;;;;50.50;28.55;;;6.00;99.90;;;;;;4991753;28;20113;-76
2022/01/16 11:10:43;;;;;;;50.33;28.73;;;6.00;99.90;;;;;;5012925;28;20034;-75
2022/01/16 11:13:14;;;;;;;48.22;28.27;;;6.00;99.90;;;;;;5008321;28;20048;-77
2022/01/16 11:15:45;;;;;;;43.58;25.63;;;6.00;99.90;;;;;;4989041;28;20080;-75
2022/01/16 11:18:12;;;;;;;50.83;27.38;;;6.10;99.90;;;;;;5008000;28;20065;-75
2022/01/16 11:20:39;;;;;;;46.47;26.40;;;6.10;99.90;;;;;;5009926;28;20034;-75
2022/01/16 11:23:28;;;;;;;47.83;25.08;;;6.10;99.90;;;;;;5022542;28;20048;-72
2022/01/16 11:25:57;;;;;;;38.90;23.17;;;6.10;99.90;;;;;;5010732;28;20156;-75
2022/01/16 11:28:23;;;;;;;39.85;22.05;;;6.10;99.90;;;;;;5007810;28;20057;-76
2022/01/16 11:30:54;;;;;;;36.40;20.90;;;6.10;99.90;;;;;;5007721;28;20462;-75
2022/01/16 11:33:23;;;;;;;35.10;20.08;;;6.20;99.90;;;;;;5015516;28;20060;-75
2022/01/16 11:35:59;;;;;;;35.42;20.70;;;6.20;99.90;;;;;;5012838;28;20744;-75
2022/01/16 11:38:34;;;;;;;33.75;20.73;;;6.20;99.90;;;;;;5014505;28;20088;-76
2022/01/16 11:41:15;;;;;;;35.42;20.05;;;6.20;99.90;;;;;;5013400;28;20037;-75
2022/01/16 11:43:45;;;;;;;40.45;20.73;;;6.20;99.90;;;;;;5015701;28;20029;-75
2022/01/16 11:46:16;;;;;;;34.92;19.02;;;6.20;99.90;;;;;;4996705;28;20034;-75
2022/01/16 11:48:50;;;;;;;32.42;18.70;;;6.30;99.90;;;;;;5006357;28;20124;-76
2022/01/16 11:51:34;;;;;;;25.75;16.38;;;6.30;99.90;;;;;;5008074;28;20062;-76
2022/01/16 11:54:20;;;;;;;37.25;18.02;;;6.30;99.90;;;;;;4891382;28;20040;-76
2022/01/16 11:56:46;;;;;;;29.95;17.55;;;6.30;99.90;;;;;;4934921;29;20057;-76
2022/01/16 11:59:28;;;;;;;29.90;15.43;;;6.30;99.90;;;;;;4929082;29;20491;-75
2022/01/16 12:02:09;;;;;;;29.33;15.95;;;6.30;99.90;;;;;;4926102;29;20043;-75
2022/01/16 12:04:34;;;;;;;28.25;15.38;;;6.40;99.90;;;;;;4931369;29;20040;-75
2022/01/16 12:07:12;;;;;;;26.20;14.55;;;6.30;99.90;;;;;;4926849;29;20134;-76
2022/01/16 12:12:22;;;;;;;19.23;10.82;;;6.50;99.90;;;;;;4934424;29;20049;-75
2022/01/16 12:15:16;;;;;;;23.00;11.63;;;6.50;99.90;;;;;;4933125;29;20036;-75
2022/01/16 12:17:45;;;;;;;20.83;10.50;;;6.50;99.90;;;;;;4933566;29;20070;-75
2022/01/16 12:20:27;;;;;;;20.38;9.70;;;6.50;99.90;;;;;;4931095;29;20039;-76
2022/01/16 12:23:08;;;;;;;20.00;10.57;;;6.60;99.90;;;;;;4926438;29;20046;-76
2022/01/16 12:25:43;;;;;;;18.63;9.85;;;6.60;99.90;;;;;;4928990;29;20040;-77
2022/01/16 12:28:14;;;;;;;21.75;10.77;;;6.70;99.90;;;;;;4945247;28;20046;-75
2022/01/16 12:30:59;;;;;;;22.08;11.20;;;6.70;99.90;;;;;;4929058;28;20043;-75
2022/01/16 12:33:42;;;;;;;17.88;9.63;;;6.70;99.90;;;;;;4930793;29;20082;-75
2022/01/16 12:36:08;;;;;;;20.50;10.70;;;6.80;99.90;;;;;;4933264;29;20102;-75
2022/01/16 12:38:46;;;;;;;17.73;9.95;;;6.80;99.90;;;;;;4947124;28;20270;-75
2022/01/16 12:41:17;;;;;;;18.10;9.95;;;6.80;99.90;;;;;;4916418;29;20050;-75
2022/01/16 12:43:52;;;;;;;20.95;11.18;;;6.80;99.90;;;;;;4920812;28;20106;-75
2022/01/16 12:46:25;;;;;;;19.98;9.70;;;6.90;99.90;;;;;;4916526;29;20035;-75
2022/01/16 12:48:51;;;;;;;;;;;6.90;99.90;;;;;;4930455;28;20047;-75
2022/01/16 12:51:19;;;;;;;21.40;9.90;;;6.90;99.90;;;;;;4949587;28;20443;-76
2022/01/16 12:53:48;;;;;;;17.50;9.25;;;6.90;99.90;;;;;;4929859;29;20874;-75
2022/01/16 12:56:18;;;;;;;25.98;10.30;;;7.00;99.90;;;;;;4932257;29;20051;-75
2022/01/16 12:58:44;;;;;;;20.05;9.27;;;7.00;99.90;;;;;;4941808;28;20039;-76
2022/01/16 13:01:10;;;;;;;20.58;9.48;;;7.00;99.90;;;;;;4944814;29;20062;-76
2022/01/16 13:03:36;;;;;;;20.60;9.60;;;7.00;99.90;;;;;;4934150;29;20043;-76
2022/01/16 13:06:16;;;;;;;20.65;9.27;;;7.00;99.90;;;;;;4934117;29;20039;-76
2022/01/16 13:09:09;;;;;;;22.20;10.93;;;7.10;99.90;;;;;;4943282;28;20122;-76
2022/01/16 13:11:36;;;;;;;18.25;9.15;;;7.10;99.90;;;;;;4925288;29;20494;-76
2022/01/16 13:14:03;;;;;;;19.77;9.60;;;7.20;99.90;;;;;;4917294;28;20039;-75
2022/01/16 13:16:41;;;;;;;18.40;8.52;;;7.20;99.90;;;;;;4947073;28;20047;-75
2022/01/16 13:19:16;;;;;;;25.05;9.23;;;7.30;99.90;;;;;;4928986;28;20051;-75
2022/01/16 13:22:03;;;;;;;25.10;9.02;;;7.20;99.90;;;;;;4932523;29;20047;-75
2022/01/16 13:24:36;;;;;;;16.23;9.10;;;7.20;99.90;;;;;;4915027;29;20139;-75